sensor_id;sensor_type;location;lat;lon;timestamp;temperature;humidity
49413;DHT22;35493;50.276;9.372;2023-04-03T00:00:38;5.50;80.10
49413;DHT22;35493;50.276;9.372;2023-04-03T00:03:05;5.50;80.20
49413;DHT22;35493;50.276;9.372;2023-04-03T00:05:32;5.40;80.10
49413;DHT22;35493;50.276;9.372;2023-04-03T00:07:59;5.40;80.20
49413;DHT22;35493;50.276;9.372;2023-04-03T00:10:27;5.40;80.30
49413;DHT22;35493;50.276;9.372;2023-04-03T00:12:55;5.40;80.30
49413;DHT22;35493;50.276;9.372;2023-04-03T00:15:23;5.50;80.40
49413;DHT22;35493;50.276;9.372;2023-04-03T00:17:50;5.50;80.10
49413;DHT22;35493;50.276;9.372;2023-04-03T00:20:17;5.40;80.20
49413;DHT22;35493;50.276;9.372;2023-04-03T00:22:44;5.40;80.60
49413;DHT22;35493;50.276;9.372;2023-04-03T00:25:11;5.40;81.00
49413;DHT22;35493;50.276;9.372;2023-04-03T00:27:39;5.40;80.90
49413;DHT22;35493;50.276;9.372;2023-04-03T00:30:10;5.40;80.50
49413;DHT22;35493;50.276;9.372;2023-04-03T00:32:37;5.40;80.50
49413;DHT22;35493;50.276;9.372;2023-04-03T00:35:05;5.40;80.50
49413;DHT22;35493;50.276;9.372;2023-04-03T00:37:33;5.40;80.60
49413;DHT22;35493;50.276;9.372;2023-04-03T00:40:00;5.40;80.60
49413;DHT22;35493;50.276;9.372;2023-04-03T00:42:27;5.40;80.60
49413;DHT22;35493;50.276;9.372;2023-04-03T00:45:34;5.40;80.30
49413;DHT22;35493;50.276;9.372;2023-04-03T00:48:04;5.40;80.40
49413;DHT22;35493;50.276;9.372;2023-04-03T00:50:33;5.50;80.20
49413;DHT22;35493;50.276;9.372;2023-04-03T00:53:02;5.50;80.20
49413;DHT22;35493;50.276;9.372;2023-04-03T00:55:30;5.50;80.10
49413;DHT22;35493;50.276;9.372;2023-04-03T00:57:57;5.50;80.10
49413;DHT22;35493;50.276;9.372;2023-04-03T01:00:26;5.40;80.20
49413;DHT22;35493;50.276;9.372;2023-04-03T01:02:54;5.50;80.20
49413;DHT22;35493;50.276;9.372;2023-04-03T01:05:21;5.40;80.50
49413;DHT22;35493;50.276;9.372;2023-04-03T01:07:49;5.40;80.50
49413;DHT22;35493;50.276;9.372;2023-04-03T01:10:18;5.50;80.50
49413;DHT22;35493;50.276;9.372;2023-04-03T01:12:48;5.40;80.40
49413;DHT22;35493;50.276;9.372;2023-04-03T01:15:18;5.40;80.20
49413;DHT22;35493;50.276;9.372;2023-04-03T01:17:47;5.40;80.30
49413;DHT22;35493;50.276;9.372;2023-04-03T01:20:40;5.50;80.40
49413;DHT22;35493;50.276;9.372;2023-04-03T01:23:25;5.40;80.40
49413;DHT22;35493;50.276;9.372;2023-04-03T01:25:55;5.50;80.20
49413;DHT22;35493;50.276;9.372;2023-04-03T01:28:24;5.50;80.10
49413;DHT22;35493;50.276;9.372;2023-04-03T01:31:06;5.40;80.10
49413;DHT22;35493;50.276;9.372;2023-04-03T01:33:52;5.40;80.50
49413;DHT22;35493;50.276;9.372;2023-04-03T01:36:21;5.40;80.30
49413;DHT22;35493;50.276;9.372;2023-04-03T01:38:48;5.40;80.40
49413;DHT22;35493;50.276;9.372;2023-04-03T01:41:15;5.50;80.30
49413;DHT22;35493;50.276;9.372;2023-04-03T01:43:43;5.50;80.10
49413;DHT22;35493;50.276;9.372;2023-04-03T01:46:10;5.50;80.20
49413;DHT22;35493;50.276;9.372;2023-04-03T01:48:37;5.50;80.10
49413;DHT22;35493;50.276;9.372;2023-04-03T01:51:06;5.40;80.00
49413;DHT22;35493;50.276;9.372;2023-04-03T01:53:33;5.50;79.90
49413;DHT22;35493;50.276;9.372;2023-04-03T01:56:00;5.50;79.60
49413;DHT22;35493;50.276;9.372;2023-04-03T01:58:28;5.50;79.60
49413;DHT22;35493;50.276;9.372;2023-04-03T02:00:55;5.50;79.40
49413;DHT22;35493;50.276;9.372;2023-04-03T02:03:22;5.50;79.40
49413;DHT22;35493;50.276;9.372;2023-04-03T02:05:49;5.50;79.30
49413;DHT22;35493;50.276;9.372;2023-04-03T02:08:18;5.60;79.00
49413;DHT22;35493;50.276;9.372;2023-04-03T02:10:47;5.50;78.70
49413;DHT22;35493;50.276;9.372;2023-04-03T02:13:14;5.50;77.90
49413;DHT22;35493;50.276;9.372;2023-04-03T02:15:41;5.40;77.60
49413;DHT22;35493;50.276;9.372;2023-04-03T02:18:09;5.40;77.50
49413;DHT22;35493;50.276;9.372;2023-04-03T02:20:36;5.40;77.40
49413;DHT22;35493;50.276;9.372;2023-04-03T02:23:04;5.40;76.60
49413;DHT22;35493;50.276;9.372;2023-04-03T02:25:33;5.40;76.40
49413;DHT22;35493;50.276;9.372;2023-04-03T02:28:00;5.40;76.00
49413;DHT22;35493;50.276;9.372;2023-04-03T02:30:27;5.30;75.70
49413;DHT22;35493;50.276;9.372;2023-04-03T02:32:54;5.40;75.80
49413;DHT22;35493;50.276;9.372;2023-04-03T02:35:21;5.40;75.40
49413;DHT22;35493;50.276;9.372;2023-04-03T02:37:49;5.40;75.10
49413;DHT22;35493;50.276;9.372;2023-04-03T02:40:16;5.40;75.00
49413;DHT22;35493;50.276;9.372;2023-04-03T02:42:44;5.30;75.20
49413;DHT22;35493;50.276;9.372;2023-04-03T02:45:11;5.30;75.20
49413;DHT22;35493;50.276;9.372;2023-04-03T02:47:38;5.30;75.00
49413;DHT22;35493;50.276;9.372;2023-04-03T02:50:06;5.30;75.00
49413;DHT22;35493;50.276;9.372;2023-04-03T02:52:33;5.30;74.80
49413;DHT22;35493;50.276;9.372;2023-04-03T02:55:01;5.30;74.90
49413;DHT22;35493;50.276;9.372;2023-04-03T02:57:29;5.30;74.90
49413;DHT22;35493;50.276;9.372;2023-04-03T02:59:57;5.30;74.70
49413;DHT22;35493;50.276;9.372;2023-04-03T03:02:24;5.30;74.50
49413;DHT22;35493;50.276;9.372;2023-04-03T03:04:51;5.20;74.70
49413;DHT22;35493;50.276;9.372;2023-04-03T03:07:18;5.20;74.30
49413;DHT22;35493;50.276;9.372;2023-04-03T03:09:45;5.20;74.40
49413;DHT22;35493;50.276;9.372;2023-04-03T03:12:12;5.20;74.20
49413;DHT22;35493;50.276;9.372;2023-04-03T03:14:39;5.10;73.90
49413;DHT22;35493;50.276;9.372;2023-04-03T03:17:07;5.20;73.90
49413;DHT22;35493;50.276;9.372;2023-04-03T03:19:34;5.10;73.90
49413;DHT22;35493;50.276;9.372;2023-04-03T03:22:01;5.00;73.70
49413;DHT22;35493;50.276;9.372;2023-04-03T03:24:28;5.00;74.40
49413;DHT22;35493;50.276;9.372;2023-04-03T03:26:55;5.00;74.00
49413;DHT22;35493;50.276;9.372;2023-04-03T03:29:22;5.00;73.60
49413;DHT22;35493;50.276;9.372;2023-04-03T03:31:49;4.90;73.90
49413;DHT22;35493;50.276;9.372;2023-04-03T03:34:17;4.90;74.00
49413;DHT22;35493;50.276;9.372;2023-04-03T03:36:44;4.90;74.30
49413;DHT22;35493;50.276;9.372;2023-04-03T03:39:12;4.80;74.40
49413;DHT22;35493;50.276;9.372;2023-04-03T03:41:39;4.80;74.00
49413;DHT22;35493;50.276;9.372;2023-04-03T03:44:07;4.70;74.00
49413;DHT22;35493;50.276;9.372;2023-04-03T03:46:34;4.60;74.50
49413;DHT22;35493;50.276;9.372;2023-04-03T03:49:01;4.60;74.90
49413;DHT22;35493;50.276;9.372;2023-04-03T03:51:29;4.60;74.80
49413;DHT22;35493;50.276;9.372;2023-04-03T03:53:57;4.50;74.70
49413;DHT22;35493;50.276;9.372;2023-04-03T03:56:24;4.50;75.00
49413;DHT22;35493;50.276;9.372;2023-04-03T03:58:52;4.40;74.90
49413;DHT22;35493;50.276;9.372;2023-04-03T04:01:22;4.40;74.80
49413;DHT22;35493;50.276;9.372;2023-04-03T04:03:49;4.40;75.20
49413;DHT22;35493;50.276;9.372;2023-04-03T04:06:20;4.40;75.10
49413;DHT22;35493;50.276;9.372;2023-04-03T04:08:49;4.40;75.20
49413;DHT22;35493;50.276;9.372;2023-04-03T04:11:16;4.30;75.00
49413;DHT22;35493;50.276;9.372;2023-04-03T04:13:44;4.30;75.10
49413;DHT22;35493;50.276;9.372;2023-04-03T04:16:13;4.30;75.20
49413;DHT22;35493;50.276;9.372;2023-04-03T04:18:40;4.20;75.40
49413;DHT22;35493;50.276;9.372;2023-04-03T04:21:07;4.20;75.60
49413;DHT22;35493;50.276;9.372;2023-04-03T04:23:34;4.20;75.60
49413;DHT22;35493;50.276;9.372;2023-04-03T04:26:02;4.20;75.60
49413;DHT22;35493;50.276;9.372;2023-04-03T04:28:33;4.20;76.00
49413;DHT22;35493;50.276;9.372;2023-04-03T04:31:02;4.20;75.90
49413;DHT22;35493;50.276;9.372;2023-04-03T04:33:30;4.20;76.00
49413;DHT22;35493;50.276;9.372;2023-04-03T04:35:59;4.10;75.90
49413;DHT22;35493;50.276;9.372;2023-04-03T04:38:26;4.00;76.20
49413;DHT22;35493;50.276;9.372;2023-04-03T04:40:53;4.00;76.70
49413;DHT22;35493;50.276;9.372;2023-04-03T04:43:23;4.00;76.50
49413;DHT22;35493;50.276;9.372;2023-04-03T04:46:01;4.00;76.40
49413;DHT22;35493;50.276;9.372;2023-04-03T04:48:29;4.00;76.40
49413;DHT22;35493;50.276;9.372;2023-04-03T04:50:55;4.00;76.70
49413;DHT22;35493;50.276;9.372;2023-04-03T04:53:22;3.90;76.80
49413;DHT22;35493;50.276;9.372;2023-04-03T04:55:49;3.90;76.90
49413;DHT22;35493;50.276;9.372;2023-04-03T04:58:17;3.80;77.10
49413;DHT22;35493;50.276;9.372;2023-04-03T05:00:46;3.80;77.40
49413;DHT22;35493;50.276;9.372;2023-04-03T05:03:13;3.80;77.10
49413;DHT22;35493;50.276;9.372;2023-04-03T05:05:40;3.80;76.90
49413;DHT22;35493;50.276;9.372;2023-04-03T05:08:07;3.80;77.40
49413;DHT22;35493;50.276;9.372;2023-04-03T05:10:35;3.70;77.20
49413;DHT22;35493;50.276;9.372;2023-04-03T05:13:02;3.80;77.40
49413;DHT22;35493;50.276;9.372;2023-04-03T05:15:28;3.70;77.20
49413;DHT22;35493;50.276;9.372;2023-04-03T05:17:57;3.70;77.50
49413;DHT22;35493;50.276;9.372;2023-04-03T05:20:24;3.70;77.50
49413;DHT22;35493;50.276;9.372;2023-04-03T05:22:51;3.70;77.50
49413;DHT22;35493;50.276;9.372;2023-04-03T05:25:18;3.70;77.50
49413;DHT22;35493;50.276;9.372;2023-04-03T05:27:45;3.70;77.70
49413;DHT22;35493;50.276;9.372;2023-04-03T05:30:12;3.60;77.60
49413;DHT22;35493;50.276;9.372;2023-04-03T05:32:41;3.60;77.80
49413;DHT22;35493;50.276;9.372;2023-04-03T05:35:32;3.60;77.90
49413;DHT22;35493;50.276;9.372;2023-04-03T05:38:02;3.70;77.90
49413;DHT22;35493;50.276;9.372;2023-04-03T05:40:30;3.70;77.80
49413;DHT22;35493;50.276;9.372;2023-04-03T05:42:57;3.70;77.80
49413;DHT22;35493;50.276;9.372;2023-04-03T05:45:27;3.70;78.00
49413;DHT22;35493;50.276;9.372;2023-04-03T05:47:56;3.70;78.10
49413;DHT22;35493;50.276;9.372;2023-04-03T05:50:23;3.70;78.20
49413;DHT22;35493;50.276;9.372;2023-04-03T05:52:57;3.70;78.00
49413;DHT22;35493;50.276;9.372;2023-04-03T05:55:26;3.70;77.80
49413;DHT22;35493;50.276;9.372;2023-04-03T05:57:53;3.70;77.70
49413;DHT22;35493;50.276;9.372;2023-04-03T06:00:21;3.70;77.70
49413;DHT22;35493;50.276;9.372;2023-04-03T06:02:57;3.70;77.70
49413;DHT22;35493;50.276;9.372;2023-04-03T06:05:25;3.70;77.70
49413;DHT22;35493;50.276;9.372;2023-04-03T06:07:53;3.70;77.60
49413;DHT22;35493;50.276;9.372;2023-04-03T06:10:20;3.70;77.20
49413;DHT22;35493;50.276;9.372;2023-04-03T06:12:47;3.80;77.10
49413;DHT22;35493;50.276;9.372;2023-04-03T06:15:14;3.80;77.30
49413;DHT22;35493;50.276;9.372;2023-04-03T06:17:43;3.80;76.90
49413;DHT22;35493;50.276;9.372;2023-04-03T06:20:11;3.90;76.60
49413;DHT22;35493;50.276;9.372;2023-04-03T06:22:38;3.90;76.60
49413;DHT22;35493;50.276;9.372;2023-04-03T06:25:08;3.90;76.80
49413;DHT22;35493;50.276;9.372;2023-04-03T06:27:35;4.10;76.50
49413;DHT22;35493;50.276;9.372;2023-04-03T06:30:03;4.20;76.10
49413;DHT22;35493;50.276;9.372;2023-04-03T06:32:30;4.20;75.90
49413;DHT22;35493;50.276;9.372;2023-04-03T06:34:57;4.20;75.70
49413;DHT22;35493;50.276;9.372;2023-04-03T06:37:24;4.30;75.60
49413;DHT22;35493;50.276;9.372;2023-04-03T06:39:53;4.30;75.30
49413;DHT22;35493;50.276;9.372;2023-04-03T06:42:22;4.40;75.10
49413;DHT22;35493;50.276;9.372;2023-04-03T06:44:59;4.50;75.00
49413;DHT22;35493;50.276;9.372;2023-04-03T06:47:25;4.50;74.70
49413;DHT22;35493;50.276;9.372;2023-04-03T06:49:52;4.50;74.20
49413;DHT22;35493;50.276;9.372;2023-04-03T06:52:19;4.50;74.00
49413;DHT22;35493;50.276;9.372;2023-04-03T06:54:46;4.50;73.50
49413;DHT22;35493;50.276;9.372;2023-04-03T06:57:13;4.50;73.70
49413;DHT22;35493;50.276;9.372;2023-04-03T06:59:42;4.60;73.70
49413;DHT22;35493;50.276;9.372;2023-04-03T07:02:11;4.60;73.80
49413;DHT22;35493;50.276;9.372;2023-04-03T07:04:38;4.70;73.40
49413;DHT22;35493;50.276;9.372;2023-04-03T07:07:05;4.70;73.10
49413;DHT22;35493;50.276;9.372;2023-04-03T07:09:33;4.60;73.00
49413;DHT22;35493;50.276;9.372;2023-04-03T07:12:00;4.60;73.00
49413;DHT22;35493;50.276;9.372;2023-04-03T07:14:27;4.60;72.90
49413;DHT22;35493;50.276;9.372;2023-04-03T07:16:55;4.60;72.10
49413;DHT22;35493;50.276;9.372;2023-04-03T07:19:23;4.60;72.80
49413;DHT22;35493;50.276;9.372;2023-04-03T07:21:53;4.60;72.60
49413;DHT22;35493;50.276;9.372;2023-04-03T07:24:20;4.60;72.50
49413;DHT22;35493;50.276;9.372;2023-04-03T07:26:49;4.60;72.30
49413;DHT22;35493;50.276;9.372;2023-04-03T07:29:16;4.60;72.40
49413;DHT22;35493;50.276;9.372;2023-04-03T07:31:43;4.70;71.90
49413;DHT22;35493;50.276;9.372;2023-04-03T07:34:13;4.80;71.70
49413;DHT22;35493;50.276;9.372;2023-04-03T07:36:40;4.90;71.30
49413;DHT22;35493;50.276;9.372;2023-04-03T07:39:07;5.00;70.80
49413;DHT22;35493;50.276;9.372;2023-04-03T07:41:34;5.00;70.30
49413;DHT22;35493;50.276;9.372;2023-04-03T07:44:01;5.20;69.90
49413;DHT22;35493;50.276;9.372;2023-04-03T07:46:28;5.30;69.60
49413;DHT22;35493;50.276;9.372;2023-04-03T07:48:55;5.40;68.80
49413;DHT22;35493;50.276;9.372;2023-04-03T07:51:23;5.50;68.70
49413;DHT22;35493;50.276;9.372;2023-04-03T07:53:51;5.70;68.40
49413;DHT22;35493;50.276;9.372;2023-04-03T07:56:18;5.80;68.00
49413;DHT22;35493;50.276;9.372;2023-04-03T07:58:46;5.90;67.10
49413;DHT22;35493;50.276;9.372;2023-04-03T08:01:13;5.90;66.30
49413;DHT22;35493;50.276;9.372;2023-04-03T08:03:40;6.10;65.90
49413;DHT22;35493;50.276;9.372;2023-04-03T08:06:08;6.30;66.00
49413;DHT22;35493;50.276;9.372;2023-04-03T08:08:36;6.40;65.70
49413;DHT22;35493;50.276;9.372;2023-04-03T08:11:03;6.40;65.30
49413;DHT22;35493;50.276;9.372;2023-04-03T08:13:32;6.50;65.50
49413;DHT22;35493;50.276;9.372;2023-04-03T08:16:08;6.50;64.80
49413;DHT22;35493;50.276;9.372;2023-04-03T08:18:35;6.60;64.20
49413;DHT22;35493;50.276;9.372;2023-04-03T08:21:05;6.70;64.30
49413;DHT22;35493;50.276;9.372;2023-04-03T08:23:32;6.70;63.30
49413;DHT22;35493;50.276;9.372;2023-04-03T08:26:06;6.70;63.40
49413;DHT22;35493;50.276;9.372;2023-04-03T08:28:33;6.90;63.60
49413;DHT22;35493;50.276;9.372;2023-04-03T08:31:03;7.00;63.30
49413;DHT22;35493;50.276;9.372;2023-04-03T08:33:31;7.00;62.80
49413;DHT22;35493;50.276;9.372;2023-04-03T08:35:58;7.00;62.10
49413;DHT22;35493;50.276;9.372;2023-04-03T08:38:25;7.00;61.50
49413;DHT22;35493;50.276;9.372;2023-04-03T08:41:07;7.10;61.70
49413;DHT22;35493;50.276;9.372;2023-04-03T08:43:45;7.20;61.00
49413;DHT22;35493;50.276;9.372;2023-04-03T08:46:17;7.30;61.10
49413;DHT22;35493;50.276;9.372;2023-04-03T08:48:46;7.40;61.10
49413;DHT22;35493;50.276;9.372;2023-04-03T08:51:15;7.40;60.40
49413;DHT22;35493;50.276;9.372;2023-04-03T08:53:46;7.40;60.30
49413;DHT22;35493;50.276;9.372;2023-04-03T08:56:19;7.40;59.80
49413;DHT22;35493;50.276;9.372;2023-04-03T08:58:49;7.40;59.40
49413;DHT22;35493;50.276;9.372;2023-04-03T09:01:20;7.60;59.70
49413;DHT22;35493;50.276;9.372;2023-04-03T09:03:51;7.70;59.70
49413;DHT22;35493;50.276;9.372;2023-04-03T09:06:20;7.90;59.10
49413;DHT22;35493;50.276;9.372;2023-04-03T09:09:04;8.00;58.90
49413;DHT22;35493;50.276;9.372;2023-04-03T09:11:44;7.90;58.20
49413;DHT22;35493;50.276;9.372;2023-04-03T09:14:19;8.00;57.50
49413;DHT22;35493;50.276;9.372;2023-04-03T09:16:53;8.10;57.30
49413;DHT22;35493;50.276;9.372;2023-04-03T09:19:28;8.20;57.20
49413;DHT22;35493;50.276;9.372;2023-04-03T09:22:01;8.20;56.70
49413;DHT22;35493;50.276;9.372;2023-04-03T09:24:31;8.30;56.60
49413;DHT22;35493;50.276;9.372;2023-04-03T09:27:03;8.40;55.20
49413;DHT22;35493;50.276;9.372;2023-04-03T09:29:40;8.40;55.20
49413;DHT22;35493;50.276;9.372;2023-04-03T09:32:19;8.40;54.50
49413;DHT22;35493;50.276;9.372;2023-04-03T09:34:49;8.10;54.60
49413;DHT22;35493;50.276;9.372;2023-04-03T09:37:34;8.00;55.00
49413;DHT22;35493;50.276;9.372;2023-04-03T09:40:03;8.20;56.00
49413;DHT22;35493;50.276;9.372;2023-04-03T09:42:32;8.30;54.90
49413;DHT22;35493;50.276;9.372;2023-04-03T09:45:01;8.40;54.20
49413;DHT22;35493;50.276;9.372;2023-04-03T09:47:31;8.60;54.20
49413;DHT22;35493;50.276;9.372;2023-04-03T09:50:19;8.60;54.60
49413;DHT22;35493;50.276;9.372;2023-04-03T09:52:48;8.70;53.00
49413;DHT22;35493;50.276;9.372;2023-04-03T09:55:16;8.70;52.60
49413;DHT22;35493;50.276;9.372;2023-04-03T09:57:45;8.90;52.00
49413;DHT22;35493;50.276;9.372;2023-04-03T10:00:19;9.00;51.60
49413;DHT22;35493;50.276;9.372;2023-04-03T10:02:50;9.20;52.90
49413;DHT22;35493;50.276;9.372;2023-04-03T10:05:30;9.10;51.90
49413;DHT22;35493;50.276;9.372;2023-04-03T10:08:09;9.10;50.90
49413;DHT22;35493;50.276;9.372;2023-04-03T10:10:36;9.00;50.90
49413;DHT22;35493;50.276;9.372;2023-04-03T10:13:07;8.90;50.00
49413;DHT22;35493;50.276;9.372;2023-04-03T10:15:41;8.80;50.90
49413;DHT22;35493;50.276;9.372;2023-04-03T10:18:24;8.60;49.80
49413;DHT22;35493;50.276;9.372;2023-04-03T10:20:56;8.80;49.70
49413;DHT22;35493;50.276;9.372;2023-04-03T10:23:28;9.00;49.10
49413;DHT22;35493;50.276;9.372;2023-04-03T10:26:07;9.20;49.10
49413;DHT22;35493;50.276;9.372;2023-04-03T10:28:43;9.40;49.60
49413;DHT22;35493;50.276;9.372;2023-04-03T10:31:16;9.60;49.50
49413;DHT22;35493;50.276;9.372;2023-04-03T10:33:59;9.60;49.90
49413;DHT22;35493;50.276;9.372;2023-04-03T10:36:37;9.50;49.30
49413;DHT22;35493;50.276;9.372;2023-04-03T10:39:15;9.50;48.40
49413;DHT22;35493;50.276;9.372;2023-04-03T10:41:56;9.60;49.30
49413;DHT22;35493;50.276;9.372;2023-04-03T10:44:32;9.80;49.00
49413;DHT22;35493;50.276;9.372;2023-04-03T10:47:09;9.90;47.70
49413;DHT22;35493;50.276;9.372;2023-04-03T10:49:49;9.90;45.70
49413;DHT22;35493;50.276;9.372;2023-04-03T10:52:22;9.90;45.60
49413;DHT22;35493;50.276;9.372;2023-04-03T10:54:58;9.90;46.60
49413;DHT22;35493;50.276;9.372;2023-04-03T10:57:26;10.10;45.90
49413;DHT22;35493;50.276;9.372;2023-04-03T10:59:59;10.10;45.80
49413;DHT22;35493;50.276;9.372;2023-04-03T11:02:30;10.20;44.90
49413;DHT22;35493;50.276;9.372;2023-04-03T11:05:01;10.20;44.50
49413;DHT22;35493;50.276;9.372;2023-04-03T11:07:32;10.20;46.10
49413;DHT22;35493;50.276;9.372;2023-04-03T11:10:02;10.30;44.90
49413;DHT22;35493;50.276;9.372;2023-04-03T11:12:36;10.20;44.70
49413;DHT22;35493;50.276;9.372;2023-04-03T11:15:12;10.20;43.80
49413;DHT22;35493;50.276;9.372;2023-04-03T11:17:43;10.20;44.80
49413;DHT22;35493;50.276;9.372;2023-04-03T11:20:17;10.20;45.00
49413;DHT22;35493;50.276;9.372;2023-04-03T11:22:50;10.40;45.60
49413;DHT22;35493;50.276;9.372;2023-04-03T11:25:20;10.40;45.40
49413;DHT22;35493;50.276;9.372;2023-04-03T11:27:53;10.40;44.70
49413;DHT22;35493;50.276;9.372;2023-04-03T11:30:27;10.40;43.60
49413;DHT22;35493;50.276;9.372;2023-04-03T11:33:19;10.50;44.50
49413;DHT22;35493;50.276;9.372;2023-04-03T11:35:50;10.50;43.50
49413;DHT22;35493;50.276;9.372;2023-04-03T11:38:19;10.60;44.30
49413;DHT22;35493;50.276;9.372;2023-04-03T11:40:49;10.60;44.50
49413;DHT22;35493;50.276;9.372;2023-04-03T11:43:25;10.60;43.60
49413;DHT22;35493;50.276;9.372;2023-04-03T11:45:58;10.50;42.60
49413;DHT22;35493;50.276;9.372;2023-04-03T11:48:48;10.50;43.40
49413;DHT22;35493;50.276;9.372;2023-04-03T11:51:43;10.50;42.00
49413;DHT22;35493;50.276;9.372;2023-04-03T11:57:44;10.40;43.80
49413;DHT22;35493;50.276;9.372;2023-04-03T12:00:47;10.60;44.60
49413;DHT22;35493;50.276;9.372;2023-04-03T12:03:55;10.60;44.60
49413;DHT22;35493;50.276;9.372;2023-04-03T12:10:14;10.50;44.10
49413;DHT22;35493;50.276;9.372;2023-04-03T12:12:56;10.50;43.40
49413;DHT22;35493;50.276;9.372;2023-04-03T12:15:52;10.40;42.60
49413;DHT22;35493;50.276;9.372;2023-04-03T12:19:01;10.40;42.20
49413;DHT22;35493;50.276;9.372;2023-04-03T12:22:11;10.30;42.30
49413;DHT22;35493;50.276;9.372;2023-04-03T12:24:39;10.20;42.80
49413;DHT22;35493;50.276;9.372;2023-04-03T12:27:23;10.30;44.00
49413;DHT22;35493;50.276;9.372;2023-04-03T12:29:55;10.30;44.00
49413;DHT22;35493;50.276;9.372;2023-04-03T12:32:34;10.30;44.60
49413;DHT22;35493;50.276;9.372;2023-04-03T12:35:10;10.30;44.40
49413;DHT22;35493;50.276;9.372;2023-04-03T12:37:51;10.30;44.20
49413;DHT22;35493;50.276;9.372;2023-04-03T12:40:25;10.20;42.60
49413;DHT22;35493;50.276;9.372;2023-04-03T12:43:20;10.00;42.90
49413;DHT22;35493;50.276;9.372;2023-04-03T12:45:52;10.00;43.60
49413;DHT22;35493;50.276;9.372;2023-04-03T12:48:26;10.10;43.90
49413;DHT22;35493;50.276;9.372;2023-04-03T12:50:56;10.00;43.50
49413;DHT22;35493;50.276;9.372;2023-04-03T12:53:25;10.00;43.90
49413;DHT22;35493;50.276;9.372;2023-04-03T12:55:54;10.00;43.90
49413;DHT22;35493;50.276;9.372;2023-04-03T12:58:22;10.00;43.90
49413;DHT22;35493;50.276;9.372;2023-04-03T13:01:00;10.10;44.90
49413;DHT22;35493;50.276;9.372;2023-04-03T13:03:28;9.90;44.70
49413;DHT22;35493;50.276;9.372;2023-04-03T13:05:59;9.90;43.70
49413;DHT22;35493;50.276;9.372;2023-04-03T13:08:27;9.80;44.10
49413;DHT22;35493;50.276;9.372;2023-04-03T13:10:58;9.80;44.30
49413;DHT22;35493;50.276;9.372;2023-04-03T13:13:26;9.80;44.60
49413;DHT22;35493;50.276;9.372;2023-04-03T13:15:54;9.70;45.00
49413;DHT22;35493;50.276;9.372;2023-04-03T13:18:25;9.70;45.10
49413;DHT22;35493;50.276;9.372;2023-04-03T13:20:52;9.70;45.60
49413;DHT22;35493;50.276;9.372;2023-04-03T13:23:22;9.70;45.30
49413;DHT22;35493;50.276;9.372;2023-04-03T13:25:50;9.70;46.00
49413;DHT22;35493;50.276;9.372;2023-04-03T13:28:20;9.70;45.50
49413;DHT22;35493;50.276;9.372;2023-04-03T13:30:58;9.70;46.00
49413;DHT22;35493;50.276;9.372;2023-04-03T13:33:29;9.60;45.40
49413;DHT22;35493;50.276;9.372;2023-04-03T13:36:02;9.40;46.10
49413;DHT22;35493;50.276;9.372;2023-04-03T13:38:32;9.50;46.10
49413;DHT22;35493;50.276;9.372;2023-04-03T13:41:01;9.50;45.60
49413;DHT22;35493;50.276;9.372;2023-04-03T13:43:31;9.40;46.00
49413;DHT22;35493;50.276;9.372;2023-04-03T13:46:05;9.40;46.10
49413;DHT22;35493;50.276;9.372;2023-04-03T13:48:38;9.30;46.30
49413;DHT22;35493;50.276;9.372;2023-04-03T13:51:16;9.30;46.00
49413;DHT22;35493;50.276;9.372;2023-04-03T13:53:46;9.30;46.50
49413;DHT22;35493;50.276;9.372;2023-04-03T13:56:19;9.40;46.60
49413;DHT22;35493;50.276;9.372;2023-04-03T13:58:56;9.30;47.30
49413;DHT22;35493;50.276;9.372;2023-04-03T14:01:25;9.30;46.60
49413;DHT22;35493;50.276;9.372;2023-04-03T14:03:55;9.20;46.80
49413;DHT22;35493;50.276;9.372;2023-04-03T14:06:23;9.20;45.40
49413;DHT22;35493;50.276;9.372;2023-04-03T14:08:51;9.10;46.60
49413;DHT22;35493;50.276;9.372;2023-04-03T14:11:20;9.20;46.00
49413;DHT22;35493;50.276;9.372;2023-04-03T14:13:48;9.10;45.50
49413;DHT22;35493;50.276;9.372;2023-04-03T14:16:18;9.00;45.90
49413;DHT22;35493;50.276;9.372;2023-04-03T14:18:46;9.00;45.50
49413;DHT22;35493;50.276;9.372;2023-04-03T14:21:14;9.00;45.50
49413;DHT22;35493;50.276;9.372;2023-04-03T14:23:41;9.00;46.30
49413;DHT22;35493;50.276;9.372;2023-04-03T14:26:11;9.00;46.40
49413;DHT22;35493;50.276;9.372;2023-04-03T14:28:38;8.90;45.90
49413;DHT22;35493;50.276;9.372;2023-04-03T14:31:05;8.90;46.40
49413;DHT22;35493;50.276;9.372;2023-04-03T14:33:32;8.90;46.70
49413;DHT22;35493;50.276;9.372;2023-04-03T14:36:00;8.90;46.30
49413;DHT22;35493;50.276;9.372;2023-04-03T14:38:28;8.90;46.60
49413;DHT22;35493;50.276;9.372;2023-04-03T14:40:55;8.90;46.60
49413;DHT22;35493;50.276;9.372;2023-04-03T14:43:24;8.80;46.40
49413;DHT22;35493;50.276;9.372;2023-04-03T14:45:51;8.80;46.10
49413;DHT22;35493;50.276;9.372;2023-04-03T14:48:19;8.90;46.70
49413;DHT22;35493;50.276;9.372;2023-04-03T14:50:46;8.80;46.10
49413;DHT22;35493;50.276;9.372;2023-04-03T14:53:14;8.80;46.30
49413;DHT22;35493;50.276;9.372;2023-04-03T14:55:41;8.70;45.50
49413;DHT22;35493;50.276;9.372;2023-04-03T14:58:09;8.70;46.30
49413;DHT22;35493;50.276;9.372;2023-04-03T15:00:39;8.70;46.70
49413;DHT22;35493;50.276;9.372;2023-04-03T15:03:08;8.70;47.80
49413;DHT22;35493;50.276;9.372;2023-04-03T15:05:37;8.70;46.60
49413;DHT22;35493;50.276;9.372;2023-04-03T15:08:04;8.70;46.30
49413;DHT22;35493;50.276;9.372;2023-04-03T15:10:31;8.70;47.00
49413;DHT22;35493;50.276;9.372;2023-04-03T15:12:58;8.70;47.30
49413;DHT22;35493;50.276;9.372;2023-04-03T15:15:26;8.70;47.30
49413;DHT22;35493;50.276;9.372;2023-04-03T15:17:56;8.70;47.10
49413;DHT22;35493;50.276;9.372;2023-04-03T15:20:24;8.60;46.80
49413;DHT22;35493;50.276;9.372;2023-04-03T15:22:52;8.60;47.90
49413;DHT22;35493;50.276;9.372;2023-04-03T15:25:18;8.60;47.40
49413;DHT22;35493;50.276;9.372;2023-04-03T15:27:45;8.60;47.60
49413;DHT22;35493;50.276;9.372;2023-04-03T15:30:13;8.50;47.00
49413;DHT22;35493;50.276;9.372;2023-04-03T15:32:41;8.40;47.20
49413;DHT22;35493;50.276;9.372;2023-04-03T15:35:09;8.50;46.80
49413;DHT22;35493;50.276;9.372;2023-04-03T15:37:36;8.40;47.20
49413;DHT22;35493;50.276;9.372;2023-04-03T15:40:03;8.40;46.40
49413;DHT22;35493;50.276;9.372;2023-04-03T15:42:30;8.40;46.40
49413;DHT22;35493;50.276;9.372;2023-04-03T15:44:57;8.30;46.20
49413;DHT22;35493;50.276;9.372;2023-04-03T15:47:24;8.40;46.50
49413;DHT22;35493;50.276;9.372;2023-04-03T15:49:51;8.40;47.40
49413;DHT22;35493;50.276;9.372;2023-04-03T15:52:19;8.40;46.50
49413;DHT22;35493;50.276;9.372;2023-04-03T15:54:46;8.30;46.40
49413;DHT22;35493;50.276;9.372;2023-04-03T15:57:31;8.30;46.90
49413;DHT22;35493;50.276;9.372;2023-04-03T15:59:58;8.30;46.90
49413;DHT22;35493;50.276;9.372;2023-04-03T16:02:25;8.30;47.40
49413;DHT22;35493;50.276;9.372;2023-04-03T16:04:53;8.30;46.50
49413;DHT22;35493;50.276;9.372;2023-04-03T16:07:21;8.20;46.40
49413;DHT22;35493;50.276;9.372;2023-04-03T16:09:48;8.20;46.50
49413;DHT22;35493;50.276;9.372;2023-04-03T16:12:15;8.20;46.90